Terminal Aerodrome Forecast
Issued by NWS

Home | Current Version | Previous Version | Text Only | Print | Product List | Glossary On
Versions: 1 2 3 4 5 6 7 8 9 10 11 12 13
309
FTUS43 KICT 071124
TAFHUT
TAF
KHUT 071124Z 0712/0812 32007KT P6SM BKN200
     FM071600 32015G23KT P6SM BKN200
     FM071900 33025G33KT P6SM SCT250=

USA.gov is the U.S. government's official web portal to all federal, state and local government web resources and services.